Historyczne dane pomiarowe

Dodano dane terminowe – wersja testowa.

Dane z okresu 1951-2019

Wersja bazy: 1.34 [2019-03-16, lista zmian], aktualizacja planowana na 2019-04-15

Dane meteo z obszaru Polski uzyskane na podstawie danych udostępnionych przez Instytut Meteorologii i Gospodarki Wodnej – Państwowy Instytut Badawczy.

 

Wybierz Datę:    

       

TemperaturaWilgotnośćWiatrCiśnienieOpadyŚniegCzas trwania zjawisk
 Stacja t tx tn tng RH VA  wxwx mslp ppp RRR   cm mm wxwxwxwxwxwxwx
1963-02-14 -3.2 -0.8 -5.1-10.0 82.5- 7.7 0.7---- 0.9-- 68---------
1963-02-15 -6.8 -1.7-10.4 -6.9 82.0- 4.7 0.7---- 0.0-- 69---------
1963-02-16 -8.4 -1.9-14.7-22.1 80.3- 3.3 1.0---- 0.0-- 66---------
1963-02-17 -0.8 2.1-10.2-17.1 85.3- 7.3 1.3---- 1.2-- 65---------
1963-02-18 -4.1 1.3 -6.5 -4.0 80.0- 3.7 2.0---- 0.0-- 63---------
1963-02-19 -1.9 3.5-11.4-20.2 79.5- 7.3 1.7---- 0.2-- 60---------
1963-02-20 -4.2 -1.4 -5.6 -4.9 86.3- 8.0 0.0---- 12.4-- 60---------
1963-02-21 -7.0 -3.6 -8.6 -8.0 78.3- 8.0 0.7---- 2.8-- 74---------
1963-02-22-13.1 -6.2-17.2 -9.8 75.5- 4.0 1.0---- 0.0-- 80---------
1963-02-23-15.4 -6.5-21.8-30.6 70.8- 2.7 0.7---- 0.0-- 78---------
1963-02-24-14.3 -5.1-21.1-30.6 69.0- 0.3 0.7---- 0.0-- 75---------
1963-02-25-11.0 -1.2-18.5-29.3 68.8- 0.7 0.3---- 1.2-- 73---------
1963-02-26 -8.5 -4.4-12.3-23.0 73.0- 8.0 1.7---- 0.9-- 75---------
1963-02-27-21.3-11.0-27.9-36.3 69.8- 2.3 1.7---- 0.0-- 77---------
1963-02-28-19.7 -8.9-26.3-38.5 67.8- 0.0 0.3---- 0.0-- 75---------
1963-03-01-15.0 -6.5-23.8-35.0 67.8- 5.7 0.7---- 0.0-- 73---------
1963-03-02 -7.3 -0.2-18.3-24.0 65.8- 2.3 1.3---- 0.0-- 71---------
1963-03-03 -3.0 2.4 -9.5-18.4 45.3- 4.7 3.0---- 0.1-- 69---------
1963-03-04 -4.5 -1.2 -6.5-10.7 83.5- 7.7 1.7---- 1.1-- 69---------
1963-03-05 -3.8 1.1 -6.1 -7.1 69.5- 6.0 2.0---- 0.0-- 70---------
1963-03-06 -1.3 7.8-12.9-18.8 50.5- 4.7 2.0---- 0.0-- 68---------
1963-03-07 5.7 12.6 -3.2 -9.4 33.3- 5.7 2.7---- 0.0-- 68---------
1963-03-08 3.2 9.0 0.4 0.3 53.3- 2.7 2.3---- 0.0-- 57---------
1963-03-09 3.5 10.1 -1.7 -9.1 73.8- 7.7 1.7---- 1.0-- 52---------
1963-03-10 1.8 7.8 -3.8 -7.0 70.8- 7.0 1.3---- 0.1-- 41---------
1963-03-11 3.7 7.1 -0.2 -1.3 59.8- 6.0 2.3---- 0.0-- 39---------
1963-03-12 1.7 5.4 0.7 -3.1 88.0- 7.7 2.7---- 11.1-- 35---------
1963-03-13 0.3 2.6 -1.2 0.0 79.0- 7.3 4.7---- 3.3-- 33---------
1963-03-14 -7.0 -0.9 -9.4 -4.7 79.0- 8.0 3.3---- 1.2-- 35---------
1963-03-15-13.3 -4.0-21.2-27.3 64.0- 0.0 1.3---- 0.0-- 41---------
184.5 ms

 

Źródłem pochodzenia danych jest Instytut Meteorologii i Gospodarki Wodnej – Państwowy Instytut Badawczy. Dane Instytutu Meteorologii i Gospodarki Wodnej – Państwowego Instytutu Badawczego zostały przetworzone.

Dane źródłowe można odnaleźć na stronie https://dane.imgw.pl